Time;durP1;ratioP1;P1;durP2;ratioP2;P2;SDS_P1;SDS_P2;PMS_P1;PMS_P2;Temp;Humidity;BMP_temperature;BMP_pressure;BME280_temperature;BME280_humidity;BME280_pressure;Samples;Min_cycle;Max_cycle;Signal;HPM_P1;HPM_P2
2023/12/11 00:01:59;;;;;;;2.00;0.80;;;8.20;38.30;;;;;;4967542;28;49025;-73
2023/12/11 00:04:24;;;;;;;4.40;1.07;;;8.20;38.80;;;;;;4977323;28;46185;-72
2023/12/11 00:06:50;;;;;;;2.13;0.80;;;8.10;38.80;;;;;;4974378;28;46484;-72
2023/12/11 00:09:16;;;;;;;3.77;1.23;;;8.10;39.10;;;;;;4977943;28;45964;-73
2023/12/11 00:11:42;;;;;;;2.73;0.80;;;8.00;39.40;;;;;;4972627;28;46721;-73
2023/12/11 00:14:08;;;;;;;1.40;0.80;;;8.00;39.60;;;;;;4977289;28;46402;-73
2023/12/11 00:16:34;;;;;;;2.50;0.90;;;8.00;39.80;;;;;;4972066;28;46783;-73
2023/12/11 00:19:00;;;;;;;2.83;0.80;;;8.00;40.10;;;;;;4970106;28;46368;-73
2023/12/11 00:21:25;;;;;;;4.23;0.90;;;8.00;40.10;;;;;;4966629;28;46741;-72
2023/12/11 00:23:52;;;;;;;5.27;1.43;;;8.00;40.30;;;;;;4975909;28;46483;-72
2023/12/11 00:26:18;;;;;;;4.33;0.90;;;8.10;40.70;;;;;;4976270;28;46475;-73
2023/12/11 00:28:47;;;;;;;2.93;0.90;;;8.00;40.80;;;;;;4972782;28;46523;-73
2023/12/11 00:31:13;;;;;;;3.37;0.97;;;8.00;40.80;;;;;;4972418;28;48004;-72
2023/12/11 00:33:38;;;;;;;3.93;1.30;;;8.00;40.80;;;;;;4968660;28;46818;-73
2023/12/11 00:36:04;;;;;;;2.33;0.83;;;8.00;41.00;;;;;;4976905;28;46816;-73
2023/12/11 00:38:31;;;;;;;2.50;1.00;;;8.00;41.10;;;;;;4974854;28;46490;-73
2023/12/11 00:40:57;;;;;;;4.37;0.80;;;8.10;41.10;;;;;;4971808;28;48018;-72
2023/12/11 00:43:22;;;;;;;3.13;0.90;;;8.00;41.20;;;;;;4971241;28;46422;-73
2023/12/11 00:45:48;;;;;;;4.00;1.00;;;8.10;41.30;;;;;;4975471;28;46901;-72
2023/12/11 00:48:14;;;;;;;2.87;0.90;;;8.10;41.20;;;;;;4976123;28;46643;-73
2023/12/11 00:50:40;;;;;;;1.67;0.90;;;8.10;41.40;;;;;;4973614;28;48107;-72
2023/12/11 00:53:07;;;;;;;3.27;0.90;;;8.10;41.50;;;;;;4973700;28;46494;-73
2023/12/11 00:55:32;;;;;;;4.30;1.20;;;8.20;41.50;;;;;;4971797;28;45935;-73
2023/12/11 00:57:58;;;;;;;2.83;1.00;;;8.20;41.40;;;;;;4967530;28;46488;-73
2023/12/11 01:00:24;;;;;;;3.30;1.00;;;8.30;41.50;;;;;;4971286;28;47503;-73
2023/12/11 01:02:49;;;;;;;3.60;1.00;;;8.30;41.40;;;;;;4968288;28;46696;-73
2023/12/11 01:05:15;;;;;;;3.33;0.80;;;8.30;41.40;;;;;;4969628;28;46543;-73
2023/12/11 01:07:41;;;;;;;3.57;1.17;;;8.30;41.50;;;;;;4968395;28;46229;-73
2023/12/11 01:10:13;;;;;;;3.43;1.00;;;8.30;41.60;;;;;;4971662;28;47964;-73
2023/12/11 01:12:38;;;;;;;5.03;1.07;;;8.40;42.30;;;;;;4968193;28;46138;-73
2023/12/11 01:15:04;;;;;;;4.00;1.00;;;8.40;41.90;;;;;;4976683;28;46432;-73
2023/12/11 01:17:30;;;;;;;2.40;1.03;;;8.40;41.80;;;;;;4969963;28;46029;-73
2023/12/11 01:19:56;;;;;;;4.70;1.20;;;8.40;41.90;;;;;;4971745;28;46658;-71
2023/12/11 01:22:21;;;;;;;2.90;1.00;;;8.50;41.80;;;;;;4969714;28;46342;-73
2023/12/11 01:24:47;;;;;;;6.47;1.03;;;8.50;41.80;;;;;;4971958;28;46568;-74
2023/12/11 01:27:13;;;;;;;1.83;0.93;;;8.50;42.40;;;;;;4974346;28;46735;-74
2023/12/11 01:29:39;;;;;;;3.80;1.00;;;8.50;42.70;;;;;;4969855;28;48686;-74
2023/12/11 01:32:07;;;;;;;2.97;1.07;;;8.40;44.20;;;;;;4966811;28;46313;-72
2023/12/11 01:34:33;;;;;;;2.60;0.90;;;8.30;44.80;;;;;;4977192;28;46758;-73
2023/12/11 01:36:59;;;;;;;3.47;1.00;;;8.30;44.70;;;;;;4968420;28;46728;-72
2023/12/11 01:39:25;;;;;;;3.80;1.00;;;8.30;45.40;;;;;;4967482;28;46675;-73
2023/12/11 01:41:50;;;;;;;7.47;1.10;;;8.30;45.20;;;;;;4970347;28;46666;-72
2023/12/11 01:44:16;;;;;;;4.37;1.00;;;8.40;44.80;;;;;;4970437;28;46435;-73
2023/12/11 01:46:44;;;;;;;4.60;1.10;;;8.50;44.70;;;;;;4970825;28;46641;-72
2023/12/11 01:49:10;;;;;;;5.47;1.30;;;8.50;44.70;;;;;;4970310;28;46906;-74
2023/12/11 01:51:36;;;;;;;2.43;1.00;;;8.50;44.50;;;;;;4969696;28;46914;-73
2023/12/11 01:54:03;;;;;;;3.53;1.13;;;8.50;44.30;;;;;;4969242;28;46084;-74
2023/12/11 01:56:29;;;;;;;8.20;1.20;;;8.60;44.70;;;;;;4973669;28;46575;-73
2023/12/11 01:58:56;;;;;;;2.37;0.90;;;8.50;45.70;;;;;;4965406;28;47935;-73
2023/12/11 02:01:25;;;;;;;3.97;1.20;;;8.30;48.40;;;;;;4969070;28;45843;-73
2023/12/11 02:03:51;;;;;;;5.53;1.10;;;8.20;51.10;;;;;;4969645;28;46200;-74
2023/12/11 02:06:17;;;;;;;3.17;0.90;;;8.00;54.50;;;;;;4977038;28;46594;-73
2023/12/11 02:08:45;;;;;;;3.73;1.10;;;8.00;55.90;;;;;;4969573;28;46487;-73
2023/12/11 02:11:12;;;;;;;1.63;0.87;;;8.00;55.90;;;;;;4974504;28;46764;-74
2023/12/11 02:13:39;;;;;;;1.90;0.90;;;8.10;55.60;;;;;;4966846;28;46332;-73
2023/12/11 02:16:06;;;;;;;3.83;1.57;;;8.00;56.00;;;;;;4967673;28;46309;-74
2023/12/11 02:18:31;;;;;;;2.80;1.10;;;8.00;57.20;;;;;;4977207;28;47519;-74
2023/12/11 02:20:57;;;;;;;5.77;1.50;;;8.00;56.60;;;;;;4967610;28;46477;-74
2023/12/11 02:23:26;;;;;;;5.00;1.23;;;8.10;55.90;;;;;;4974595;28;45920;-74
2023/12/11 02:26:12;;;;;;;3.13;1.17;;;8.10;55.50;;;;;;4975528;28;46419;-73
2023/12/11 02:28:38;;;;;;;3.07;1.40;;;8.20;55.50;;;;;;4953033;28;48148;-73
2023/12/11 02:31:04;;;;;;;2.40;1.13;;;8.20;55.40;;;;;;4965524;28;45771;-73
2023/12/11 02:33:29;;;;;;;5.50;1.00;;;8.20;55.50;;;;;;4975711;28;46661;-73
2023/12/11 02:35:55;;;;;;;2.00;1.20;;;8.20;56.00;;;;;;4972090;28;46404;-73
2023/12/11 02:38:21;;;;;;;6.47;1.50;;;8.00;57.70;;;;;;4972152;28;48903;-73
2023/12/11 02:40:46;;;;;;;4.47;1.10;;;7.90;60.90;;;;;;4968389;28;46496;-72
2023/12/11 02:43:12;;;;;;;4.30;1.13;;;7.80;63.50;;;;;;4972638;28;46514;-73
2023/12/11 02:45:38;;;;;;;4.30;1.30;;;7.80;65.00;;;;;;4973699;28;45963;-74
2023/12/11 02:48:04;;;;;;;4.03;1.37;;;7.80;64.10;;;;;;4974203;28;46474;-72
2023/12/11 02:50:30;;;;;;;5.60;1.10;;;7.80;64.90;;;;;;4972112;28;45906;-72
2023/12/11 02:53:01;;;;;;;3.90;1.20;;;7.80;65.70;;;;;;4969080;28;46392;-72
2023/12/11 02:55:27;;;;;;;4.30;1.20;;;7.70;66.00;;;;;;4974967;28;46360;-72
2023/12/11 02:58:01;;;;;;;6.03;1.10;;;7.80;65.80;;;;;;4974090;28;46464;-72
2023/12/11 03:00:28;;;;;;;4.93;1.40;;;7.80;65.50;;;;;;4967197;28;45966;-73
2023/12/11 03:02:54;;;;;;;3.20;1.30;;;7.90;64.70;;;;;;4972469;28;46488;-72
2023/12/11 03:05:20;;;;;;;3.50;1.20;;;8.00;64.10;;;;;;4965417;28;46451;-73
2023/12/11 03:07:46;;;;;;;2.93;0.90;;;8.00;63.70;;;;;;4968315;28;47704;-71
2023/12/11 03:10:12;;;;;;;5.20;1.30;;;8.00;63.70;;;;;;4979726;28;46101;-72
2023/12/11 03:12:38;;;;;;;2.77;1.13;;;8.10;63.80;;;;;;4987813;28;46347;-70
2023/12/11 03:15:05;;;;;;;2.30;1.10;;;8.10;63.40;;;;;;4986227;28;45847;-74
2023/12/11 03:17:31;;;;;;;3.23;1.20;;;8.20;63.30;;;;;;4986755;28;48038;-72
2023/12/11 03:19:59;;;;;;;3.70;1.30;;;8.20;62.90;;;;;;4979928;28;46333;-72
2023/12/11 03:22:25;;;;;;;3.07;1.00;;;8.30;62.60;;;;;;4972822;28;46456;-72
2023/12/11 03:24:51;;;;;;;3.30;1.30;;;8.30;62.50;;;;;;4973880;28;45935;-72
2023/12/11 03:27:17;;;;;;;4.60;1.40;;;8.30;62.30;;;;;;4969725;28;47813;-72
2023/12/11 03:29:43;;;;;;;5.00;1.37;;;8.30;62.10;;;;;;4973611;28;46177;-73
2023/12/11 03:32:09;;;;;;;7.63;1.20;;;8.30;62.10;;;;;;4978615;28;46396;-72
2023/12/11 03:34:35;;;;;;;6.33;1.57;;;8.30;62.30;;;;;;4984091;28;46330;-71
2023/12/11 03:37:01;;;;;;;2.93;1.10;;;8.30;62.20;;;;;;4978844;28;46940;-73
2023/12/11 03:39:26;;;;;;;1.77;1.13;;;8.30;62.50;;;;;;4969453;28;46515;-72
2023/12/11 03:41:52;;;;;;;3.47;1.40;;;8.30;62.60;;;;;;4971666;28;46419;-73
2023/12/11 03:44:18;;;;;;;3.60;1.20;;;8.30;62.50;;;;;;4971382;28;45862;-72
2023/12/11 03:46:44;;;;;;;3.80;1.10;;;8.30;62.30;;;;;;4971298;28;47919;-73
2023/12/11 03:49:10;;;;;;;3.40;1.13;;;8.30;62.40;;;;;;4970110;28;45816;-73
2023/12/11 03:51:36;;;;;;;1.97;0.93;;;8.20;63.00;;;;;;4975731;28;46701;-72
2023/12/11 03:54:04;;;;;;;4.50;1.00;;;8.10;63.80;;;;;;4976453;28;46642;-73
2023/12/11 03:56:30;;;;;;;2.50;1.10;;;8.00;63.70;;;;;;4970785;28;48235;-72
2023/12/11 03:58:56;;;;;;;4.60;0.97;;;7.90;63.90;;;;;;4978634;28;46610;-72
2023/12/11 04:01:21;;;;;;;3.93;0.80;;;7.90;64.40;;;;;;4969256;28;46387;-71
2023/12/11 04:03:47;;;;;;;2.10;1.10;;;8.00;64.10;;;;;;4975734;28;46592;-71
2023/12/11 04:06:16;;;;;;;3.90;1.17;;;8.10;63.80;;;;;;4970593;28;48228;-72
2023/12/11 04:08:42;;;;;;;2.90;1.57;;;8.30;63.90;;;;;;4973356;28;46448;-72
2023/12/11 04:11:09;;;;;;;4.40;1.57;;;8.30;63.90;;;;;;4973543;28;46499;-72
2023/12/11 04:13:35;;;;;;;5.53;1.37;;;8.50;63.60;;;;;;4977088;28;46801;-72
2023/12/11 04:16:03;;;;;;;2.30;1.33;;;8.50;63.50;;;;;;4969766;28;46453;-72
2023/12/11 04:18:30;;;;;;;4.13;1.57;;;8.60;63.60;;;;;;4973993;28;46393;-72
2023/12/11 04:20:56;;;;;;;8.03;1.60;;;8.70;63.70;;;;;;4969097;28;46557;-73
2023/12/11 04:23:22;;;;;;;2.27;1.13;;;8.70;63.70;;;;;;4970097;28;46405;-72
2023/12/11 04:25:48;;;;;;;4.40;1.50;;;8.70;63.50;;;;;;4972941;28;48158;-73
2023/12/11 04:28:16;;;;;;;5.57;1.83;;;8.80;63.60;;;;;;4970466;28;46530;-71
2023/12/11 04:30:46;;;;;;;1.90;1.30;;;8.80;63.70;;;;;;4973505;28;46324;-72
2023/12/11 04:33:12;;;;;;;4.20;1.77;;;8.80;63.80;;;;;;4976618;28;46707;-72
2023/12/11 04:35:37;;;;;;;4.70;1.60;;;8.80;64.10;;;;;;4975134;28;46870;-72
2023/12/11 04:38:03;;;;;;;4.90;1.53;;;8.80;64.40;;;;;;4974710;28;46480;-73
2023/12/11 04:40:29;;;;;;;6.63;1.73;;;8.80;64.40;;;;;;5001364;22;46407;-69
2023/12/11 04:42:54;;;;;;;3.63;1.47;;;8.80;64.40;;;;;;5001853;28;46345;-69
2023/12/11 04:45:20;;;;;;;7.37;1.30;;;8.70;64.30;;;;;;5004397;28;46752;-69
2023/12/11 04:47:46;;;;;;;1.77;1.10;;;8.70;64.30;;;;;;4977841;28;46545;-69
2023/12/11 04:50:12;;;;;;;3.07;1.33;;;8.70;64.30;;;;;;4969449;28;46502;-69
2023/12/11 04:52:37;;;;;;;2.67;1.37;;;8.70;64.30;;;;;;4970913;28;46508;-69
2023/12/11 04:55:03;;;;;;;8.10;1.23;;;8.70;64.70;;;;;;4971293;28;46962;-69
2023/12/11 04:57:29;;;;;;;2.50;1.10;;;8.70;64.70;;;;;;4971504;28;46463;-69
2023/12/11 04:59:55;;;;;;;3.57;1.10;;;8.60;65.20;;;;;;4968142;28;46738;-69
2023/12/11 05:02:20;;;;;;;3.23;1.20;;;8.40;65.70;;;;;;4971631;28;46731;-69
2023/12/11 05:04:46;;;;;;;2.03;0.97;;;8.20;66.40;;;;;;4971129;28;47262;-70
2023/12/11 05:07:11;;;;;;;1.50;0.87;;;8.10;67.10;;;;;;4970217;28;46496;-69
2023/12/11 05:09:37;;;;;;;3.83;1.30;;;7.90;67.50;;;;;;4973565;28;46453;-69
2023/12/11 05:12:03;;;;;;;3.23;1.10;;;7.80;67.90;;;;;;4967592;28;46507;-69
2023/12/11 05:14:28;;;;;;;2.80;1.20;;;7.80;68.30;;;;;;4965923;28;47051;-69
2023/12/11 05:16:54;;;;;;;2.47;1.40;;;7.70;68.50;;;;;;4970473;28;46679;-69
2023/12/11 05:19:20;;;;;;;1.97;1.17;;;7.70;68.60;;;;;;4969782;28;46108;-68
2023/12/11 05:21:46;;;;;;;1.40;0.97;;;7.60;68.50;;;;;;4973039;28;46431;-68
2023/12/11 05:24:12;;;;;;;3.07;1.00;;;7.60;68.60;;;;;;4968121;28;46532;-68
2023/12/11 05:26:38;;;;;;;2.13;1.13;;;7.70;68.60;;;;;;4971536;28;46171;-68
2023/12/11 05:29:04;;;;;;;1.73;1.07;;;7.70;68.60;;;;;;4974065;28;45800;-69
2023/12/11 05:31:30;;;;;;;1.83;1.13;;;7.60;68.70;;;;;;4974418;28;46776;-68
2023/12/11 05:33:56;;;;;;;2.70;1.00;;;7.70;68.70;;;;;;4971303;28;47107;-69
2023/12/11 05:36:22;;;;;;;1.70;1.20;;;7.70;68.80;;;;;;4968130;28;46582;-69
2023/12/11 05:38:48;;;;;;;2.30;0.97;;;7.70;68.80;;;;;;4974519;28;46402;-69
2023/12/11 05:41:13;;;;;;;3.10;1.30;;;7.70;68.80;;;;;;4969826;28;46366;-68
2023/12/11 05:43:39;;;;;;;1.33;0.97;;;7.60;68.80;;;;;;4969745;28;46452;-71
2023/12/11 05:46:06;;;;;;;7.33;1.33;;;7.60;68.80;;;;;;4968487;28;46722;-71
2023/12/11 05:48:32;;;;;;;2.90;1.20;;;7.60;68.90;;;;;;4969716;28;46546;-70
2023/12/11 05:50:57;;;;;;;1.87;1.00;;;7.60;68.90;;;;;;4968609;28;46425;-70
2023/12/11 05:53:23;;;;;;;2.17;0.97;;;7.70;69.00;;;;;;4972658;28;46332;-71
2023/12/11 05:55:49;;;;;;;2.33;1.10;;;7.60;69.10;;;;;;4968333;28;46515;-71
2023/12/11 05:58:14;;;;;;;7.50;1.27;;;7.60;69.00;;;;;;4970694;28;46381;-71
2023/12/11 06:00:40;;;;;;;2.93;1.30;;;7.70;68.90;;;;;;4970110;28;46493;-71
2023/12/11 06:03:05;;;;;;;1.73;1.03;;;7.80;68.80;;;;;;4971613;28;47232;-71
2023/12/11 06:05:31;;;;;;;3.20;1.30;;;7.80;68.50;;;;;;4973049;28;46475;-71
2023/12/11 06:07:57;;;;;;;1.70;1.00;;;7.90;68.50;;;;;;4968025;28;45836;-71
2023/12/11 06:10:22;;;;;;;3.43;1.20;;;7.90;68.60;;;;;;4976668;28;46480;-72
2023/12/11 06:12:48;;;;;;;2.93;1.30;;;7.90;68.70;;;;;;4970336;28;46589;-71
2023/12/11 06:15:14;;;;;;;5.43;1.50;;;7.90;68.80;;;;;;4971740;28;46397;-71
2023/12/11 06:17:39;;;;;;;3.93;1.00;;;7.90;68.80;;;;;;4972623;28;46463;-71
2023/12/11 06:20:05;;;;;;;3.80;1.70;;;8.00;68.80;;;;;;4968687;28;46853;-71
2023/12/11 06:22:31;;;;;;;2.10;1.60;;;8.10;68.60;;;;;;4971087;28;46612;-71
2023/12/11 06:24:56;;;;;;;1.30;1.00;;;8.10;68.60;;;;;;4968114;28;46482;-71
2023/12/11 06:27:27;;;;;;;10.57;6.33;;;8.10;68.70;;;;;;4968526;28;46428;-71
2023/12/11 06:29:53;;;;;;;5.37;2.30;;;8.10;69.00;;;;;;4969241;28;46528;-70
2023/12/11 06:32:19;;;;;;;1.60;1.23;;;8.10;69.10;;;;;;4971318;28;46475;-71
2023/12/11 06:34:45;;;;;;;1.80;0.93;;;8.10;69.10;;;;;;4968140;28;46371;-71
2023/12/11 06:37:11;;;;;;;5.57;1.87;;;8.10;69.10;;;;;;4966995;28;46499;-72
2023/12/11 06:39:36;;;;;;;2.27;1.47;;;8.10;69.30;;;;;;4971255;28;46469;-72
2023/12/11 06:42:02;;;;;;;2.47;1.90;;;8.20;69.20;;;;;;4972399;28;46417;-71
2023/12/11 06:44:28;;;;;;;3.87;2.53;;;8.30;69.10;;;;;;4973128;28;46468;-71
2023/12/11 06:46:54;;;;;;;2.27;1.43;;;8.40;69.00;;;;;;4974194;28;46764;-71
2023/12/11 06:49:20;;;;;;;1.67;1.43;;;8.50;69.00;;;;;;4977385;28;46408;-71
2023/12/11 06:51:45;;;;;;;3.17;1.70;;;8.50;68.80;;;;;;4971062;28;48341;-71
2023/12/11 06:54:11;;;;;;;3.60;1.50;;;8.60;68.90;;;;;;4971172;28;46375;-71
2023/12/11 06:56:37;;;;;;;1.97;1.20;;;8.60;68.90;;;;;;4972363;28;45912;-71
2023/12/11 06:59:03;;;;;;;3.77;1.40;;;8.60;70.30;;;;;;4978535;28;46393;-71
2023/12/11 07:01:33;;;;;;;2.17;1.60;;;8.60;69.10;;;;;;4974445;28;48145;-71
2023/12/11 07:03:59;;;;;;;5.83;2.10;;;8.60;69.20;;;;;;4975606;28;46491;-71
2023/12/11 07:06:25;;;;;;;4.00;1.80;;;8.60;69.10;;;;;;4973232;28;46488;-71
2023/12/11 07:08:51;;;;;;;2.63;1.70;;;8.60;69.20;;;;;;4971802;28;46485;-71
2023/12/11 07:11:17;;;;;;;2.60;1.73;;;8.70;69.30;;;;;;4972217;28;46460;-71
2023/12/11 07:13:43;;;;;;;1.70;1.20;;;8.70;69.20;;;;;;4971545;28;46480;-71
2023/12/11 07:16:09;;;;;;;1.80;0.90;;;8.70;69.20;;;;;;4972964;28;46336;-71
2023/12/11 07:18:35;;;;;;;1.43;1.00;;;8.70;69.20;;;;;;4973796;28;46400;-71
2023/12/11 07:21:00;;;;;;;10.03;8.07;;;8.70;69.20;;;;;;4973052;28;46610;-72
2023/12/11 07:23:26;;;;;;;2.70;1.70;;;8.80;69.30;;;;;;4970658;28;46310;-71
2023/12/11 07:25:52;;;;;;;3.37;1.90;;;8.90;69.10;;;;;;4976255;28;46415;-71
2023/12/11 07:28:18;;;;;;;2.53;1.30;;;9.00;68.80;;;;;;4973804;28;46479;-71
2023/12/11 07:30:44;;;;;;;1.60;1.10;;;9.20;68.70;;;;;;4970224;28;47177;-71
2023/12/11 07:33:09;;;;;;;2.40;1.00;;;9.30;68.20;;;;;;4972855;28;45861;-71
2023/12/11 07:35:36;;;;;;;2.40;0.97;;;9.50;68.10;;;;;;4972443;28;46414;-70
2023/12/11 07:38:02;;;;;;;1.87;1.10;;;9.60;67.90;;;;;;4973088;28;46449;-71
2023/12/11 07:40:28;;;;;;;3.90;1.10;;;9.70;67.70;;;;;;4974497;28;46660;-71
2023/12/11 07:42:54;;;;;;;1.43;0.90;;;9.80;67.50;;;;;;4968242;28;46390;-71
2023/12/11 07:45:22;;;;;;;3.07;1.00;;;9.90;67.50;;;;;;4974322;28;46353;-71
2023/12/11 07:47:47;;;;;;;3.03;1.03;;;10.00;66.40;;;;;;4970509;28;45971;-71
2023/12/11 07:50:13;;;;;;;3.17;1.10;;;10.00;66.40;;;;;;4972384;28;46398;-71
2023/12/11 07:52:39;;;;;;;1.50;0.90;;;10.10;66.40;;;;;;4972027;28;46441;-71
2023/12/11 07:55:05;;;;;;;1.80;0.93;;;10.20;66.40;;;;;;4972880;28;46449;-71
2023/12/11 07:57:31;;;;;;;2.50;1.20;;;10.30;66.50;;;;;;4969722;28;46506;-72
2023/12/11 07:59:57;;;;;;;3.67;2.13;;;10.30;66.60;;;;;;4976542;28;46524;-71
2023/12/11 08:02:22;;;;;;;3.27;1.67;;;10.30;66.60;;;;;;4975212;28;46475;-72
2023/12/11 08:04:48;;;;;;;2.73;1.20;;;10.30;66.80;;;;;;4970664;28;46412;-71
2023/12/11 08:07:14;;;;;;;2.30;1.10;;;10.30;66.90;;;;;;4970514;28;46460;-71
2023/12/11 08:09:40;;;;;;;2.00;1.10;;;10.20;67.00;;;;;;4972176;28;46401;-72
2023/12/11 08:12:07;;;;;;;3.80;1.40;;;10.20;67.20;;;;;;4976034;28;45778;-71
2023/12/11 08:14:32;;;;;;;2.03;1.20;;;10.20;67.30;;;;;;4976329;28;46241;-71
2023/12/11 08:16:59;;;;;;;2.63;1.07;;;10.10;67.60;;;;;;4972858;28;46523;-71
2023/12/11 08:19:25;;;;;;;2.50;1.07;;;10.10;67.60;;;;;;4972724;28;47801;-70
2023/12/11 08:21:51;;;;;;;2.13;1.17;;;10.10;67.40;;;;;;4973815;28;46463;-72
2023/12/11 08:24:16;;;;;;;3.10;1.70;;;10.20;67.30;;;;;;4972252;28;46655;-70
2023/12/11 08:26:43;;;;;;;4.90;1.80;;;10.30;67.40;;;;;;4971161;28;46399;-72
2023/12/11 08:29:09;;;;;;;2.30;1.10;;;10.30;67.30;;;;;;4968757;28;47711;-72
2023/12/11 08:31:35;;;;;;;5.63;2.53;;;10.30;67.10;;;;;;4971145;28;46277;-70
2023/12/11 08:34:01;;;;;;;4.53;1.47;;;10.30;67.10;;;;;;4973058;28;46463;-72
2023/12/11 08:36:27;;;;;;;2.63;1.20;;;10.30;67.00;;;;;;4971593;28;46357;-70
2023/12/11 08:38:52;;;;;;;2.87;1.27;;;10.40;67.20;;;;;;4971258;28;48109;-72
2023/12/11 08:41:18;;;;;;;2.80;1.23;;;10.40;67.20;;;;;;4974153;28;46360;-72
2023/12/11 08:43:44;;;;;;;2.17;1.20;;;10.40;67.00;;;;;;4971344;28;46450;-72
2023/12/11 08:46:09;;;;;;;2.77;1.13;;;10.40;67.00;;;;;;4971950;28;46443;-72
2023/12/11 08:48:35;;;;;;;1.87;0.97;;;10.40;67.20;;;;;;4971582;28;46400;-71
2023/12/11 08:51:01;;;;;;;1.77;0.83;;;10.40;66.80;;;;;;4968374;28;46440;-71
2023/12/11 08:53:26;;;;;;;1.90;1.10;;;10.40;66.90;;;;;;4972741;28;46449;-72
2023/12/11 08:55:53;;;;;;;2.33;1.10;;;10.40;67.00;;;;;;4972088;28;46593;-72
2023/12/11 08:58:19;;;;;;;1.60;0.93;;;10.30;67.00;;;;;;4981570;28;48389;-70
2023/12/11 09:00:45;;;;;;;3.37;1.00;;;10.30;67.00;;;;;;4974873;28;46178;-72
2023/12/11 09:03:11;;;;;;;2.60;1.40;;;10.20;66.90;;;;;;4974495;28;46406;-71
2023/12/11 09:05:37;;;;;;;2.70;1.00;;;10.20;67.00;;;;;;4974997;28;46441;-77
2023/12/11 09:08:02;;;;;;;1.87;1.13;;;10.20;67.00;;;;;;4974904;28;46384;-70
2023/12/11 09:10:28;;;;;;;1.73;0.83;;;10.30;67.10;;;;;;4978385;28;46564;-69
2023/12/11 09:12:54;;;;;;;1.57;0.90;;;10.20;66.90;;;;;;4975941;28;46425;-71
2023/12/11 09:15:20;;;;;;;1.83;0.97;;;10.30;66.60;;;;;;4977570;28;46481;-69
2023/12/11 09:17:46;;;;;;;1.57;0.93;;;10.30;66.40;;;;;;4975925;28;47386;-70
2023/12/11 09:20:12;;;;;;;6.90;1.40;;;10.40;66.20;;;;;;4975080;28;46390;-70
2023/12/11 09:22:41;;;;;;;1.43;0.80;;;10.50;65.70;;;;;;4972682;28;46223;-68
2023/12/11 09:25:07;;;;;;;2.20;0.90;;;10.50;65.40;;;;;;4981435;28;46025;-70
2023/12/11 09:27:33;;;;;;;2.00;0.93;;;10.50;65.30;;;;;;4975597;28;46820;-70
2023/12/11 09:29:59;;;;;;;2.23;1.00;;;10.50;65.10;;;;;;4977853;28;46498;-70
2023/12/11 09:32:25;;;;;;;3.03;1.40;;;10.50;65.00;;;;;;4980004;28;46410;-69
2023/12/11 09:34:51;;;;;;;3.20;1.17;;;10.60;65.00;;;;;;4973435;28;46308;-70
2023/12/11 09:37:19;;;;;;;1.30;0.77;;;10.60;65.00;;;;;;4969668;28;46390;-69
2023/12/11 09:39:46;;;;;;;1.83;0.80;;;10.70;65.10;;;;;;4979583;28;45697;-70
2023/12/11 09:42:13;;;;;;;1.60;0.87;;;10.80;65.20;;;;;;4982675;28;46154;-70
2023/12/11 09:44:41;;;;;;;1.33;0.73;;;10.80;65.20;;;;;;4982549;28;46378;-70
2023/12/11 09:47:15;;;;;;;2.07;0.93;;;10.90;65.20;;;;;;4970426;28;46392;-71
2023/12/11 09:49:43;;;;;;;1.57;0.87;;;11.00;64.90;;;;;;4970091;28;46517;-70
2023/12/11 09:52:10;;;;;;;1.90;0.80;;;11.00;64.80;;;;;;4978749;28;45766;-71
2023/12/11 09:54:35;;;;;;;1.33;0.70;;;11.00;64.90;;;;;;4981944;28;46496;-71
2023/12/11 09:57:01;;;;;;;3.90;1.00;;;11.00;65.10;;;;;;4977627;28;46377;-72
2023/12/11 09:59:30;;;;;;;1.50;0.90;;;11.00;65.20;;;;;;4968373;28;45781;-70
2023/12/11 10:01:56;;;;;;;1.77;0.80;;;11.00;65.30;;;;;;4978317;28;46460;-70
2023/12/11 10:04:22;;;;;;;2.60;1.00;;;10.90;65.30;;;;;;4979428;28;46232;-70
2023/12/11 10:06:52;;;;;;;2.10;1.00;;;10.90;65.20;;;;;;4978511;28;47079;-71
2023/12/11 10:09:28;;;;;;;1.60;0.80;;;10.80;65.20;;;;;;4982870;28;45811;-71
2023/12/11 10:12:04;;;;;;;1.70;0.90;;;10.80;65.20;;;;;;4985857;28;46364;-71
2023/12/11 10:14:30;;;;;;;2.20;1.10;;;10.80;65.20;;;;;;4973539;28;46507;-71
2023/12/11 10:16:57;;;;;;;1.80;1.00;;;10.80;65.20;;;;;;4978110;28;47085;-70
2023/12/11 10:19:33;;;;;;;2.57;1.10;;;10.80;65.40;;;;;;4972840;28;46607;-69
2023/12/11 10:22:00;;;;;;;1.60;0.80;;;10.80;65.50;;;;;;4979713;28;46406;-70
2023/12/11 10:24:26;;;;;;;3.80;1.20;;;10.80;65.40;;;;;;4964187;28;46945;-70
2023/12/11 10:26:56;;;;;;;6.07;1.20;;;10.80;65.20;;;;;;4965246;28;46261;-70
2023/12/11 10:29:24;;;;;;;3.60;1.00;;;10.90;65.20;;;;;;4970519;28;46365;-70
2023/12/11 10:31:51;;;;;;;1.80;0.90;;;10.90;65.30;;;;;;4984376;28;46386;-70
2023/12/11 10:34:17;;;;;;;1.80;0.90;;;10.90;65.20;;;;;;4972501;28;46169;-70
2023/12/11 10:36:52;;;;;;;1.87;0.90;;;10.90;65.20;;;;;;4982797;28;46151;-70
2023/12/11 10:39:22;;;;;;;4.10;1.00;;;10.90;65.30;;;;;;4982835;28;46182;-70
2023/12/11 10:41:47;;;;;;;3.70;0.90;;;11.00;65.40;;;;;;4976235;28;46370;-70
2023/12/11 10:44:26;;;;;;;1.47;0.80;;;11.10;65.40;;;;;;4964045;28;46263;-71
2023/12/11 10:46:55;;;;;;;1.37;0.73;;;11.20;65.40;;;;;;4980732;28;46387;-71
2023/12/11 10:49:24;;;;;;;3.13;1.00;;;11.30;65.10;;;;;;4984505;28;46377;-71
2023/12/11 10:51:51;;;;;;;1.40;0.70;;;11.30;64.90;;;;;;4987382;28;46226;-70
2023/12/11 10:54:18;;;;;;;2.53;1.50;;;11.40;64.60;;;;;;4972587;28;46499;-70
2023/12/11 10:56:46;;;;;;;1.80;1.03;;;11.50;64.50;;;;;;4974962;28;46548;-71
2023/12/11 10:59:12;;;;;;;5.27;1.60;;;11.40;64.60;;;;;;4980816;28;46280;-70
2023/12/11 11:01:47;;;;;;;7.03;3.73;;;11.30;64.90;;;;;;4979123;28;46465;-70
2023/12/11 11:04:14;;;;;;;1.53;0.70;;;11.20;65.30;;;;;;4967781;28;46624;-70
2023/12/11 11:06:56;;;;;;;1.97;1.10;;;11.20;65.60;;;;;;4969306;28;46195;-70
2023/12/11 11:09:35;;;;;;;1.70;0.80;;;11.10;65.40;;;;;;4983332;28;45717;-70
2023/12/11 11:12:40;;;;;;;2.00;1.00;;;11.20;65.10;;;;;;4977635;28;46380;-70
2023/12/11 11:15:08;;;;;;;1.50;0.80;;;11.20;65.00;;;;;;4975527;28;46306;-69
2023/12/11 11:17:56;;;;;;;1.70;0.80;;;11.10;65.00;;;;;;4971474;28;47285;-69
2023/12/11 11:20:23;;;;;;;3.67;1.40;;;11.00;64.90;;;;;;4975249;28;46574;-70
2023/12/11 11:22:49;;;;;;;1.40;0.70;;;11.00;64.80;;;;;;4981231;28;46400;-70
2023/12/11 11:25:34;;;;;;;2.27;0.80;;;11.10;64.80;;;;;;4973947;28;46485;-70
2023/12/11 11:28:01;;;;;;;1.40;0.70;;;11.20;64.40;;;;;;4974954;28;46547;-70
2023/12/11 11:30:42;;;;;;;7.40;4.23;;;11.20;64.40;;;;;;4980484;28;46158;-69
2023/12/11 11:33:10;;;;;;;1.70;0.90;;;11.20;64.20;;;;;;4977558;28;46361;-70
2023/12/11 11:35:45;;;;;;;1.77;0.90;;;11.20;64.20;;;;;;4981268;28;46361;-71
2023/12/11 11:38:14;;;;;;;1.40;0.70;;;11.10;64.10;;;;;;4980075;28;46179;-71
2023/12/11 11:40:43;;;;;;;1.60;0.80;;;11.00;64.30;;;;;;4977578;28;46397;-71
2023/12/11 11:43:10;;;;;;;2.10;0.87;;;11.00;64.30;;;;;;4975399;28;46401;-71
2023/12/11 11:45:36;;;;;;;1.93;0.80;;;11.00;64.10;;;;;;4981363;28;46561;-71
2023/12/11 11:48:01;;;;;;;1.40;0.70;;;11.10;63.90;;;;;;4979738;28;46995;-70
2023/12/11 11:50:27;;;;;;;1.50;0.80;;;11.10;63.80;;;;;;4984747;28;46386;-71
2023/12/11 11:53:00;;;;;;;1.90;0.93;;;11.10;63.70;;;;;;4980942;28;46414;-70
2023/12/11 11:55:27;;;;;;;1.70;0.80;;;11.10;63.50;;;;;;4974527;28;45837;-69
2023/12/11 11:57:56;;;;;;;1.30;0.67;;;11.10;63.60;;;;;;4968505;28;46731;-69
2023/12/11 12:00:28;;;;;;;2.30;1.20;;;11.10;63.80;;;;;;4978810;28;46132;-69
2023/12/11 12:03:03;;;;;;;2.30;0.93;;;11.00;65.00;;;;;;4982683;28;46934;-69
2023/12/11 12:05:29;;;;;;;3.87;2.17;;;10.90;63.80;;;;;;4977977;28;46528;-70
2023/12/11 12:07:55;;;;;;;7.73;4.00;;;10.90;63.90;;;;;;4975207;28;46810;-71
2023/12/11 12:10:20;;;;;;;3.60;2.60;;;10.80;63.90;;;;;;4981751;28;45904;-69
2023/12/11 12:12:55;;;;;;;2.37;1.37;;;10.80;63.80;;;;;;4974588;28;46680;-70
2023/12/11 12:15:20;;;;;;;4.80;2.70;;;10.80;65.00;;;;;;4971794;28;46398;-70
2023/12/11 12:17:46;;;;;;;3.07;1.20;;;10.80;63.50;;;;;;4980027;28;46465;-70
2023/12/11 12:20:13;;;;;;;7.27;3.90;;;10.80;63.30;;;;;;4974369;28;46462;-70
2023/12/11 12:22:56;;;;;;;11.37;5.87;;;10.80;63.20;;;;;;4970252;28;46318;-70
2023/12/11 12:25:22;;;;;;;7.07;3.73;;;10.80;62.90;;;;;;4970937;28;46517;-70
2023/12/11 12:27:49;;;;;;;2.80;1.37;;;10.90;62.80;;;;;;4978229;28;47275;-70
2023/12/11 12:30:16;;;;;;;4.03;2.13;;;11.00;62.60;;;;;;4974022;28;46380;-71
2023/12/11 12:32:42;;;;;;;3.40;1.77;;;11.00;62.50;;;;;;4971355;28;46502;-71
2023/12/11 12:35:09;;;;;;;2.40;1.20;;;10.90;62.60;;;;;;4969698;28;46758;-71
2023/12/11 12:37:36;;;;;;;3.90;2.23;;;10.80;62.70;;;;;;4978196;28;46598;-70
2023/12/11 12:40:05;;;;;;;3.43;1.43;;;10.80;62.70;;;;;;4971032;28;46420;-70
2023/12/11 12:42:32;;;;;;;3.80;1.57;;;10.80;62.60;;;;;;4963934;28;46729;-70
2023/12/11 12:44:58;;;;;;;1.80;0.97;;;10.80;62.50;;;;;;4978471;28;46714;-70
2023/12/11 12:47:23;;;;;;;3.60;1.20;;;10.80;62.40;;;;;;4971540;28;47233;-70
2023/12/11 12:49:49;;;;;;;2.67;0.90;;;10.80;62.30;;;;;;4973590;28;46595;-71
2023/12/11 12:52:25;;;;;;;2.30;1.00;;;10.80;62.10;;;;;;4975138;28;46354;-69